Time;durP1;ratioP1;P1;durP2;ratioP2;P2;SDS_P1;SDS_P2;PMS_P1;PMS_P2;Temp;Humidity;BMP_temperature;BMP_pressure;BME280_temperature;BME280_humidity;BME280_pressure;Samples;Min_cycle;Max_cycle;Signal;HPM_P1;HPM_P2
2022/12/07 00:00:43;;;;;;;;;;;;;;;;;;5030197;28;20259;-69
2022/12/07 00:03:09;;;;;;;;;;;;;;;;;;5030419;28;20011;-70
2022/12/07 00:05:35;;;;;;;;;;;;;;;;;;5029999;28;20271;-67
2022/12/07 00:08:01;;;;;;;;;;;;;;;;;;5027255;28;19909;-69
2022/12/07 00:10:26;;;;;;;;;;;;;;;;;;5011333;28;20385;-69
2022/12/07 00:12:52;;;;;;;;;;;;;;;;;;5011071;28;19916;-68
2022/12/07 00:15:18;;;;;;;;;;;;;;;;;;5011582;28;20365;-68
2022/12/07 00:17:44;;;;;;;;;;;;;;;;;;5011086;28;19921;-68
2022/12/07 00:20:10;;;;;;;;;;;;;;;;;;5022935;28;20039;-68
2022/12/07 00:22:36;;;;;;;;;;;;;;;;;;5030073;28;19975;-68
2022/12/07 00:25:02;;;;;;;;;;;;;;;;;;5030093;28;19909;-69
2022/12/07 00:27:28;;;;;;;;;;;;;;;;;;5029545;28;19940;-68
2022/12/07 00:29:53;;;;;;;;;;;;;;;;;;5029892;28;19913;-68
2022/12/07 00:32:19;;;;;;;;;;;;;;;;;;5029766;28;19917;-69
2022/12/07 00:34:45;;;;;;;;;;;;;;;;;;5029738;28;19913;-68
2022/12/07 00:37:12;;;;;;;;;;;;;;;;;;5029515;28;20360;-69
2022/12/07 00:39:38;;;;;;;;;;;;;;;;;;5029469;28;20381;-68
2022/12/07 00:42:04;;;;;;;;;;;;;;;;;;5029382;28;19921;-70
2022/12/07 00:44:30;;;;;;;;;;;;;;;;;;5029722;28;20008;-70
2022/12/07 00:46:56;;;;;;;;;;;;;;;;;;5029703;28;19948;-68
2022/12/07 00:49:21;;;;;;;;;;;;;;;;;;5029581;28;20888;-69
2022/12/07 00:51:47;;;;;;;;;;;;;;;;;;5029371;28;19936;-69
2022/12/07 00:54:13;;;;;;;;;;;;;;;;;;5028122;28;19956;-69
2022/12/07 00:56:39;;;;;;;;;;;;;;;;;;5029509;28;19917;-69
2022/12/07 00:59:05;;;;;;;;;;;;;;;;;;5029177;28;19913;-69
2022/12/07 01:01:31;;;;;;;;;;;;;;;;;;5029181;28;19913;-69
2022/12/07 01:03:57;;;;;;;;;;;;;;;;;;5028824;28;19913;-69
2022/12/07 01:06:23;;;;;;;;;;;;;;;;;;5029232;28;19921;-70
2022/12/07 01:08:48;;;;;;;;;;;;;;;;;;5025633;28;19994;-69
2022/12/07 01:11:14;;;;;;;;;;;;;;;;;;5029232;28;19982;-69
2022/12/07 01:13:40;;;;;;;;;;;;;;;;;;5028707;28;19950;-69
2022/12/07 01:16:06;;;;;;;;;;;;;;;;;;5029848;28;19999;-70
2022/12/07 01:18:32;;;;;;;;;;;;;;;;;;5018276;28;19913;-69
2022/12/07 01:20:58;;;;;;;;;;;;;;;;;;5016355;28;19948;-69
2022/12/07 01:23:24;;;;;;;;;;;;;;;;;;5028893;28;19928;-69
2022/12/07 01:25:50;;;;;;;;;;;;;;;;;;5029160;28;20374;-69
2022/12/07 01:28:16;;;;;;;;;;;;;;;;;;5028879;28;19913;-69
2022/12/07 01:30:42;;;;;;;;;;;;;;;;;;5028851;28;19932;-68
2022/12/07 01:33:07;;;;;;;;;;;;;;;;;;5028768;28;19959;-69
2022/12/07 01:35:33;;;;;;;;;;;;;;;;;;5029208;28;19932;-68
2022/12/07 01:37:59;;;;;;;;;;;;;;;;;;5028793;28;19925;-70
2022/12/07 01:40:25;;;;;;;;;;;;;;;;;;5028973;28;20060;-69
2022/12/07 01:42:51;;;;;;;;;;;;;;;;;;5028886;28;19927;-69
2022/12/07 01:45:17;;;;;;;;;;;;;;;;;;5015862;28;19935;-69
2022/12/07 01:47:43;;;;;;;;;;;;;;;;;;5028511;28;19932;-69
2022/12/07 01:50:09;;;;;;;;;;;;;;;;;;5029098;28;19967;-68
2022/12/07 01:52:34;;;;;;;;;;;;;;;;;;5028885;28;20055;-69
2022/12/07 01:55:00;;;;;;;;;;;;;;;;;;5028397;28;19913;-69
2022/12/07 01:57:26;;;;;;;;;;;;;;;;;;5028164;28;19995;-68
2022/12/07 01:59:52;;;;;;;;;;;;;;;;;;5029255;28;19956;-68
2022/12/07 02:02:18;;;;;;;;;;;;;;;;;;5028237;28;19928;-68
2022/12/07 02:04:44;;;;;;;;;;;;;;;;;;5028664;28;19939;-68
2022/12/07 02:07:10;;;;;;;;;;;;;;;;;;5029604;28;19929;-67
2022/12/07 02:09:36;;;;;;;;;;;;;;;;;;5009624;28;20379;-67
2022/12/07 02:12:02;;;;;;;;;;;;;;;;;;5013847;28;19913;-67
2022/12/07 02:14:27;;;;;;;;;;;;;;;;;;5013442;28;19910;-66
2022/12/07 02:16:53;;;;;;;;;;;;;;;;;;5013116;28;19909;-67
2022/12/07 02:19:19;;;;;;;;;;;;;;;;;;5025887;28;19964;-67
2022/12/07 02:21:45;;;;;;;;;;;;;;;;;;5013453;28;19921;-68
2022/12/07 02:24:11;;;;;;;;;;;;;;;;;;5013173;28;19913;-67
2022/12/07 02:26:37;;;;;;;;;;;;;;;;;;5013313;28;20008;-67
2022/12/07 02:29:03;;;;;;;;;;;;;;;;;;5012964;28;19913;-67
2022/12/07 02:31:29;;;;;;;;;;;;;;;;;;5012816;28;19920;-67
2022/12/07 02:33:54;;;;;;;;;;;;;;;;;;5013064;28;19909;-67
2022/12/07 02:36:20;;;;;;;;;;;;;;;;;;5013356;28;20461;-67
2022/12/07 02:38:46;;;;;;;;;;;;;;;;;;5013068;28;20021;-68
2022/12/07 02:41:12;;;;;;;;;;;;;;;;;;5013351;28;20464;-67
2022/12/07 02:43:38;;;;;;;;;;;;;;;;;;5012985;28;19945;-67
2022/12/07 02:46:04;;;;;;;;;;;;;;;;;;5022435;28;20321;-68
2022/12/07 02:48:30;;;;;;;;;;;;;;;;;;5032024;28;19920;-68
2022/12/07 02:50:56;;;;;;;;;;;;;;;;;;5031683;28;19962;-68
2022/12/07 02:53:21;;;;;;;;;;;;;;;;;;5031415;28;19920;-68
2022/12/07 02:55:47;;;;;;;;;;;;;;;;;;5031723;28;19920;-67
2022/12/07 02:58:13;;;;;;;;;;;;;;;;;;5022437;28;20039;-68
2022/12/07 03:00:39;;;;;;;;;;;;;;;;;;5012853;28;19917;-66
2022/12/07 03:03:05;;;;;;;;;;;;;;;;;;5012304;28;19969;-68
2022/12/07 03:05:31;;;;;;;;;;;;;;;;;;5028705;28;19913;-68
2022/12/07 03:07:57;;;;;;;;;;;;;;;;;;5022017;28;19923;-69
2022/12/07 03:10:23;;;;;;;;;;;;;;;;;;5017611;28;19964;-68
2022/12/07 03:12:49;;;;;;;;;;;;;;;;;;5012537;28;20294;-68
2022/12/07 03:15:14;;;;;;;;;;;;;;;;;;5012158;28;19910;-68
2022/12/07 03:17:40;;;;;;;;;;;;;;;;;;5014710;28;20483;-68
2022/12/07 03:20:07;;;;;;;;;;;;;;;;;;5012133;28;19968;-68
2022/12/07 03:22:33;;;;;;;;;;;;;;;;;;5010864;28;20393;-67
2022/12/07 03:24:59;;;;;;;;;;;;;;;;;;5012298;28;19909;-68
2022/12/07 03:27:25;;;;;;;;;;;;;;;;;;5012040;28;19913;-69
2022/12/07 03:29:51;;;;;;;;;;;;;;;;;;5018349;28;20009;-68
2022/12/07 03:32:16;;;;;;;;;;;;;;;;;;5011977;28;20015;-68
2022/12/07 03:34:42;;;;;;;;;;;;;;;;;;5017474;28;19913;-67
2022/12/07 03:37:08;;;;;;;;;;;;;;;;;;5011702;28;19914;-68
2022/12/07 03:39:34;;;;;;;;;;;;;;;;;;5016546;28;19913;-67
2022/12/07 03:42:00;;;;;;;;;;;;;;;;;;5030654;28;19928;-68
2022/12/07 03:44:26;;;;;;;;;;;;;;;;;;5030855;28;20357;-67
2022/12/07 03:46:52;;;;;;;;;;;;;;;;;;5030441;28;19919;-68
2022/12/07 03:49:18;;;;;;;;;;;;;;;;;;5030594;28;20388;-68
2022/12/07 03:51:44;;;;;;;;;;;;;;;;;;5030135;28;19909;-67
2022/12/07 03:54:10;;;;;;;;;;;;;;;;;;5030461;28;19920;-67
2022/12/07 03:56:36;;;;;;;;;;;;;;;;;;5030844;28;19927;-67
2022/12/07 03:59:01;;;;;;;;;;;;;;;;;;5030463;28;19958;-67
2022/12/07 04:01:27;;;;;;;;;;;;;;;;;;5030437;28;19921;-66
2022/12/07 04:03:53;;;;;;;;;;;;;;;;;;5030148;28;19960;-67
2022/12/07 04:06:19;;;;;;;;;;;;;;;;;;5030385;28;20408;-67
2022/12/07 04:08:45;;;;;;;;;;;;;;;;;;5016612;28;19917;-67
2022/12/07 04:11:11;;;;;;;;;;;;;;;;;;5012439;28;19967;-67
2022/12/07 04:14:18;;;;;;;;;;;;;;;;;;5029911;28;19913;-67
2022/12/07 04:16:23;;;;;;;;;;;;;;;;;;5030199;28;19913;-67
2022/12/07 04:18:49;;;;;;;;;;;;;;;;;;5030092;28;19913;-68
2022/12/07 04:21:14;;;;;;;;;;;;;;;;;;5029739;28;20493;-68
2022/12/07 04:23:40;;;;;;;;;;;;;;;;;;5029830;28;19948;-68
2022/12/07 04:26:06;;;;;;;;;;;;;;;;;;5029635;28;19921;-68
2022/12/07 04:28:32;;;;;;;;;;;;;;;;;;5030266;28;20024;-68
2022/12/07 04:30:58;;;;;;;;;;;;;;;;;;5029914;28;19913;-68
2022/12/07 04:33:24;;;;;;;;;;;;;;;;;;5029367;28;20019;-67
2022/12/07 04:35:50;;;;;;;;;;;;;;;;;;5029898;28;20731;-67
2022/12/07 04:38:16;;;;;;;;;;;;;;;;;;5030124;28;19916;-69
2022/12/07 04:40:41;;;;;;;;;;;;;;;;;;5029149;28;20309;-68
2022/12/07 04:43:07;;;;;;;;;;;;;;;;;;5029312;28;19971;-67
2022/12/07 04:45:33;;;;;;;;;;;;;;;;;;5022546;28;20306;-69
2022/12/07 04:47:59;;;;;;;;;;;;;;;;;;5010663;28;19951;-70
2022/12/07 04:50:25;;;;;;;;;;;;;;;;;;5016897;28;20702;-70
2022/12/07 04:52:51;;;;;;;;;;;;;;;;;;5029631;28;19917;-69
2022/12/07 04:55:17;;;;;;;;;;;;;;;;;;5029196;28;20286;-69
2022/12/07 04:57:43;;;;;;;;;;;;;;;;;;5029163;28;19946;-70
2022/12/07 05:00:09;;;;;;;;;;;;;;;;;;5029909;28;20381;-69
2022/12/07 05:02:34;;;;;;;;;;;;;;;;;;5028792;28;20630;-71
2022/12/07 05:05:00;;;;;;;;;;;;;;;;;;5017778;28;19913;-71
2022/12/07 05:07:26;;;;;;;;;;;;;;;;;;5022922;28;19925;-68
2022/12/07 05:09:52;;;;;;;;;;;;;;;;;;5010313;28;19943;-71
2022/12/07 05:12:18;;;;;;;;;;;;;;;;;;5010449;28;19914;-70
2022/12/07 05:14:44;;;;;;;;;;;;;;;;;;5010381;28;19910;-70
2022/12/07 05:17:11;;;;;;;;;;;;;;;;;;5013827;28;19913;-70
2022/12/07 05:19:37;;;;;;;;;;;;;;;;;;5029066;28;19913;-71
2022/12/07 05:22:03;;;;;;;;;;;;;;;;;;5028683;28;20442;-69
2022/12/07 05:24:29;;;;;;;;;;;;;;;;;;5028566;28;19963;-70
2022/12/07 05:26:54;;;;;;;;;;;;;;;;;;5029249;28;20687;-70
2022/12/07 05:29:20;;;;;;;;;;;;;;;;;;5029413;28;19975;-70
2022/12/07 05:31:46;;;;;;;;;;;;;;;;;;5028581;28;20441;-70
2022/12/07 05:34:12;;;;;;;;;;;;;;;;;;5026444;28;19917;-69
2022/12/07 05:36:38;;;;;;;;;;;;;;;;;;5016301;28;19921;-70
2022/12/07 05:39:04;;;;;;;;;;;;;;;;;;5009758;28;19920;-69
2022/12/07 05:44:14;;;;;;;;;;;;;;;;;;5026039;28;19924;-70
2022/12/07 05:46:40;;;;;;;;;;;;;;;;;;5031313;28;19909;-71
2022/12/07 05:49:06;;;;;;;;;;;;;;;;;;5032906;28;20364;-70
2022/12/07 05:51:32;;;;;;;;;;;;;;;;;;5033113;28;19917;-70
2022/12/07 05:53:58;;;;;;;;;;;;;;;;;;5032292;28;19913;-71
2022/12/07 05:56:24;;;;;;;;;;;;;;;;;;5017764;28;19913;-71
2022/12/07 06:01:34;;;;;;;;;;;;;;;;;;5032519;28;20393;-69
2022/12/07 06:04:00;;;;;;;;;;;;;;;;;;5032655;28;19917;-70
2022/12/07 06:06:26;;;;;;;;;;;;;;;;;;5032572;28;19921;-70
2022/12/07 06:08:52;;;;;;;;;;;;;;;;;;5028919;28;19913;-70
2022/12/07 06:14:03;;;;;;;;;;;;;;;;;;5013407;28;20341;-70
2022/12/07 06:16:29;;;;;;;;;;;;;;;;;;5024897;28;19960;-70
2022/12/07 06:18:55;;;;;;;;;;;;;;;;;;5027361;28;19910;-70
2022/12/07 06:21:20;;;;;;;;;;;;;;;;;;5013242;28;20004;-70
2022/12/07 06:23:47;;;;;;;;;;;;;;;;;;5013022;28;19964;-70
2022/12/07 06:26:13;;;;;;;;;;;;;;;;;;5015606;28;20401;-70
2022/12/07 06:28:40;;;;;;;;;;;;;;;;;;5013107;28;19957;-70
2022/12/07 06:31:07;;;;;;;;;;;;;;;;;;5012796;28;20358;-70
2022/12/07 06:33:33;;;;;;;;;;;;;;;;;;5012881;28;19909;-70
2022/12/07 06:35:58;;;;;;;;;;;;;;;;;;5013350;28;19913;-69
2022/12/07 06:38:24;;;;;;;;;;;;;;;;;;5028594;28;19928;-70
2022/12/07 06:40:50;;;;;;;;;;;;;;;;;;5031733;28;20011;-70
2022/12/07 06:43:16;;;;;;;;;;;;;;;;;;5032050;28;19975;-69
2022/12/07 06:45:42;;;;;;;;;;;;;;;;;;5028591;28;19921;-69
2022/12/07 06:48:08;;;;;;;;;;;;;;;;;;5027140;28;19909;-70
2022/12/07 06:50:34;;;;;;;;;;;;;;;;;;5020994;28;19924;-71
2022/12/07 06:53:00;;;;;;;;;;;;;;;;;;5031255;28;19916;-66
2022/12/07 06:55:25;;;;;;;;;;;;;;;;;;5031438;28;19913;-67
2022/12/07 06:57:51;;;;;;;;;;;;;;;;;;5031076;28;19920;-67
2022/12/07 07:00:17;;;;;;;;;;;;;;;;;;5031767;28;20377;-69
2022/12/07 07:02:43;;;;;;;;;;;;;;;;;;5017638;28;19922;-71
2022/12/07 07:05:09;;;;;;;;;;;;;;;;;;5025419;28;20361;-69
2022/12/07 07:07:35;;;;;;;;;;;;;;;;;;5023999;28;19956;-70
2022/12/07 07:10:01;;;;;;;;;;;;;;;;;;5012717;28;20632;-70
2022/12/07 07:12:27;;;;;;;;;;;;;;;;;;5025005;28;19913;-69
2022/12/07 07:14:53;;;;;;;;;;;;;;;;;;5030756;28;19916;-70
2022/12/07 07:17:18;;;;;;;;;;;;;;;;;;5030799;28;19936;-69
2022/12/07 07:19:44;;;;;;;;;;;;;;;;;;5030638;28;20007;-71
2022/12/07 07:22:10;;;;;;;;;;;;;;;;;;5030395;28;20270;-70
2022/12/07 07:24:36;;;;;;;;;;;;;;;;;;5024536;28;19917;-70
2022/12/07 07:27:02;;;;;;;;;;;;;;;;;;5028606;28;20361;-70
2022/12/07 07:29:28;;;;;;;;;;;;;;;;;;5028324;28;19928;-69
2022/12/07 07:31:54;;;;;;;;;;;;;;;;;;5019134;28;19975;-71
2022/12/07 07:34:20;;;;;;;;;;;;;;;;;;5022714;28;20274;-71
2022/12/07 07:36:45;;;;;;;;;;;;;;;;;;5018068;28;19914;-68
2022/12/07 07:39:12;;;;;;;;;;;;;;;;;;5027686;28;20456;-69
2022/12/07 07:41:38;;;;;;;;;;;;;;;;;;5030688;28;20058;-70
2022/12/07 07:44:04;;;;;;;;;;;;;;;;;;5029302;28;20016;-70
2022/12/07 07:46:31;;;;;;;;;;;;;;;;;;5030906;28;20271;-71
2022/12/07 07:48:57;;;;;;;;;;;;;;;;;;5030664;28;20015;-70
2022/12/07 07:51:22;;;;;;;;;;;;;;;;;;5030530;28;20317;-70
2022/12/07 07:53:48;;;;;;;;;;;;;;;;;;5030540;28;20004;-70
2022/12/07 07:56:14;;;;;;;;;;;;;;;;;;5030999;28;19932;-70
2022/12/07 07:58:40;;;;;;;;;;;;;;;;;;5030470;28;20119;-69
2022/12/07 08:01:06;;;;;;;;;;;;;;;;;;5030825;28;19939;-69
2022/12/07 08:03:32;;;;;;;;;;;;;;;;;;5028849;28;20432;-69
2022/12/07 08:05:58;;;;;;;;;;;;;;;;;;5030368;28;20350;-69
2022/12/07 08:08:24;;;;;;;;;;;;;;;;;;5028554;28;19910;-69
2022/12/07 08:10:50;;;;;;;;;;;;;;;;;;5011433;28;19935;-70
2022/12/07 08:13:16;;;;;;;;;;;;;;;;;;5011544;28;19914;-70
2022/12/07 08:15:42;;;;;;;;;;;;;;;;;;5011043;28;19936;-70
2022/12/07 08:18:08;;;;;;;;;;;;;;;;;;5011367;28;20001;-70
2022/12/07 08:20:34;;;;;;;;;;;;;;;;;;5011445;28;19913;-69
2022/12/07 08:22:59;;;;;;;;;;;;;;;;;;5011201;28;19925;-70
2022/12/07 08:25:25;;;;;;;;;;;;;;;;;;5011802;28;19971;-69
2022/12/07 08:27:51;;;;;;;;;;;;;;;;;;5011105;28;19925;-69
2022/12/07 08:30:17;;;;;;;;;;;;;;;;;;5011280;28;19953;-69
2022/12/07 08:32:43;;;;;;;;;;;;;;;;;;5011073;28;19935;-70
2022/12/07 08:35:09;;;;;;;;;;;;;;;;;;5010815;28;19916;-69
2022/12/07 08:37:35;;;;;;;;;;;;;;;;;;5015358;28;19909;-70
2022/12/07 08:40:01;;;;;;;;;;;;;;;;;;5030088;28;19917;-69
2022/12/07 08:42:29;;;;;;;;;;;;;;;;;;5030017;28;20275;-70
2022/12/07 08:44:55;;;;;;;;;;;;;;;;;;5029836;28;19909;-69
2022/12/07 08:47:21;;;;;;;;;;;;;;;;;;5029607;28;19924;-70
2022/12/07 08:49:47;;;;;;;;;;;;;;;;;;5029904;28;19920;-70
2022/12/07 08:52:13;;;;;;;;;;;;;;;;;;5027319;28;20000;-70
2022/12/07 08:54:39;;;;;;;;;;;;;;;;;;5010868;28;19914;-70
2022/12/07 08:57:04;;;;;;;;;;;;;;;;;;5013232;28;20487;-70
2022/12/07 08:59:30;;;;;;;;;;;;;;;;;;5014561;28;20313;-70
2022/12/07 09:01:56;;;;;;;;;;;;;;;;;;5019157;28;20014;-69
2022/12/07 09:04:22;;;;;;;;;;;;;;;;;;5029551;28;19955;-69
2022/12/07 09:06:48;;;;;;;;;;;;;;;;;;5029210;28;19921;-70
2022/12/07 09:09:14;;;;;;;;;;;;;;;;;;5018882;28;19952;-70
2022/12/07 09:11:40;;;;;;;;;;;;;;;;;;5010844;28;19913;-70
2022/12/07 09:14:06;;;;;;;;;;;;;;;;;;5011268;28;19909;-69
2022/12/07 09:16:32;;;;;;;;;;;;;;;;;;5029259;28;20416;-71
2022/12/07 09:18:58;;;;;;;;;;;;;;;;;;5022729;28;19915;-68
2022/12/07 09:21:23;;;;;;;;;;;;;;;;;;5016147;28;20464;-68
2022/12/07 09:23:49;;;;;;;;;;;;;;;;;;5028909;28;19929;-69
2022/12/07 09:26:15;;;;;;;;;;;;;;;;;;5028068;28;20012;-68
2022/12/07 09:28:41;;;;;;;;;;;;;;;;;;5028889;28;19948;-68
2022/12/07 09:31:07;;;;;;;;;;;;;;;;;;5027929;28;19944;-69
2022/12/07 09:33:33;;;;;;;;;;;;;;;;;;5028828;28;20399;-68
2022/12/07 09:35:59;;;;;;;;;;;;;;;;;;5016856;28;19918;-68
2022/12/07 09:38:26;;;;;;;;;;;;;;;;;;5009566;28;20378;-68
2022/12/07 09:40:52;;;;;;;;;;;;;;;;;;5009395;28;19945;-68
2022/12/07 09:43:18;;;;;;;;;;;;;;;;;;5026965;28;19979;-68
2022/12/07 09:45:43;;;;;;;;;;;;;;;;;;5028017;28;19909;-69
2022/12/07 09:48:09;;;;;;;;;;;;;;;;;;5028571;28;20386;-69
2022/12/07 09:50:35;;;;;;;;;;;;;;;;;;5027929;28;20015;-69
2022/12/07 09:53:01;;;;;;;;;;;;;;;;;;5028597;28;20672;-68
2022/12/07 09:55:27;;;;;;;;;;;;;;;;;;5028219;28;19913;-68
2022/12/07 09:57:53;;;;;;;;;;;;;;;;;;5028231;28;20424;-69
2022/12/07 10:00:19;;;;;;;;;;;;;;;;;;5028018;28;19917;-68
2022/12/07 10:02:45;;;;;;;;;;;;;;;;;;5028096;28;19963;-69
2022/12/07 10:05:11;;;;;;;;;;;;;;;;;;5027795;28;19920;-69
2022/12/07 10:07:37;;;;;;;;;;;;;;;;;;5031304;28;19913;-68
2022/12/07 10:10:03;;;;;;;;;;;;;;;;;;5023657;28;20447;-68
2022/12/07 10:12:29;;;;;;;;;;;;;;;;;;5027924;28;19913;-68
2022/12/07 10:14:55;;;;;;;;;;;;;;;;;;5027979;28;19916;-69
2022/12/07 10:17:21;;;;;;;;;;;;;;;;;;5028300;28;19948;-70
2022/12/07 10:19:47;;;;;;;;;;;;;;;;;;5028541;28;19920;-70
2022/12/07 10:22:13;;;;;;;;;;;;;;;;;;5028190;28;20444;-69
2022/12/07 10:24:40;;;;;;;;;;;;;;;;;;5028509;28;19920;-69
2022/12/07 10:27:06;;;;;;;;;;;;;;;;;;5028608;28;19920;-69
2022/12/07 10:29:32;;;;;;;;;;;;;;;;;;5028383;28;19913;-70
2022/12/07 10:31:58;;;;;;;;;;;;;;;;;;5030324;28;20374;-69
2022/12/07 10:34:24;;;;;;;;;;;;;;;;;;5031892;28;20301;-69
2022/12/07 10:36:50;;;;;;;;;;;;;;;;;;5032072;28;19955;-70
2022/12/07 10:39:16;;;;;;;;;;;;;;;;;;5032675;28;19916;-69
2022/12/07 10:41:42;;;;;;;;;;;;;;;;;;5031825;28;19913;-70
2022/12/07 10:44:07;;;;;;;;;;;;;;;;;;5031666;28;20008;-70
2022/12/07 10:46:33;;;;;;;;;;;;;;;;;;5031828;28;19953;-70
2022/12/07 10:48:59;;;;;;;;;;;;;;;;;;5032521;28;20738;-70
2022/12/07 10:51:25;;;;;;;;;;;;;;;;;;5031578;28;19920;-69
2022/12/07 10:53:51;;;;;;;;;;;;;;;;;;5021155;28;19965;-70
2022/12/07 10:56:17;;;;;;;;;;;;;;;;;;5013258;28;19933;-68
2022/12/07 10:58:45;;;;;;;;;;;;;;;;;;5012525;28;19914;-68
2022/12/07 11:01:11;;;;;;;;;;;;;;;;;;5012664;28;19913;-68
2022/12/07 11:03:37;;;;;;;;;;;;;;;;;;5022527;28;19921;-68
2022/12/07 11:06:02;;;;;;;;;;;;;;;;;;5031449;28;20344;-68
2022/12/07 11:08:30;;;;;;;;;;;;;;;;;;5035329;28;19943;-68
2022/12/07 11:10:56;;;;;;;;;;;;;;;;;;5031164;28;20004;-68
2022/12/07 11:13:22;;;;;;;;;;;;;;;;;;5030909;28;19964;-68
2022/12/07 11:15:48;;;;;;;;;;;;;;;;;;5031786;28;19909;-69
2022/12/07 11:18:13;;;;;;;;;;;;;;;;;;5030996;28;19913;-68
2022/12/07 11:20:39;;;;;;;;;;;;;;;;;;5031135;28;19913;-68
2022/12/07 11:23:05;;;;;;;;;;;;;;;;;;5031055;28;19921;-70
2022/12/07 11:25:31;;;;;;;;;;;;;;;;;;5031225;28;20286;-69
2022/12/07 11:27:57;;;;;;;;;;;;;;;;;;5030479;28;20047;-68
2022/12/07 11:30:23;;;;;;;;;;;;;;;;;;5030538;28;19940;-69
2022/12/07 11:32:49;;;;;;;;;;;;;;;;;;5030412;28;19916;-68
2022/12/07 11:35:16;;;;;;;;;;;;;;;;;;5010706;28;19920;-69
2022/12/07 11:37:42;;;;;;;;;;;;;;;;;;5011144;28;19913;-69
2022/12/07 11:40:07;;;;;;;;;;;;;;;;;;5031847;28;19979;-67
2022/12/07 11:42:34;;;;;;;;;;;;;;;;;;5017106;28;20431;-69
2022/12/07 11:45:00;;;;;;;;;;;;;;;;;;5020375;28;19913;-68
2022/12/07 11:47:26;;;;;;;;;;;;;;;;;;5018581;28;19921;-68
2022/12/07 11:49:52;;;;;;;;;;;;;;;;;;5015742;28;19918;-68
2022/12/07 11:52:18;;;;;;;;;;;;;;;;;;5018192;28;19992;-68
2022/12/07 11:54:44;;;;;;;;;;;;;;;;;;5023105;28;19943;-69
2022/12/07 11:57:10;;;;;;;;;;;;;;;;;;5015823;28;19935;-69
2022/12/07 11:59:35;;;;;;;;;;;;;;;;;;5020767;28;19913;-69
2022/12/07 12:02:01;;;;;;;;;;;;;;;;;;5015345;28;20464;-69
2022/12/07 12:04:27;;;;;;;;;;;;;;;;;;5017969;28;19960;-68
2022/12/07 12:06:53;;;;;;;;;;;;;;;;;;5015215;28;19948;-68
2022/12/07 12:09:19;;;;;;;;;;;;;;;;;;5022939;28;19975;-67
2022/12/07 12:11:45;;;;;;;;;;;;;;;;;;5021390;28;19924;-69
2022/12/07 12:14:11;;;;;;;;;;;;;;;;;;5018189;28;19913;-69
2022/12/07 12:16:37;;;;;;;;;;;;;;;;;;5016097;28;19921;-70
2022/12/07 12:19:03;;;;;;;;;;;;;;;;;;5016914;28;19918;-68
2022/12/07 12:21:29;;;;;;;;;;;;;;;;;;5023806;28;19921;-68
2022/12/07 12:23:55;;;;;;;;;;;;;;;;;;5018956;28;19972;-69
2022/12/07 12:26:22;;;;;;;;;;;;;;;;;;5015512;28;19925;-65
2022/12/07 12:28:47;;;;;;;;;;;;;;;;;;5017465;28;20329;-67
2022/12/07 12:31:13;;;;;;;;;;;;;;;;;;5015801;28;19920;-68
2022/12/07 12:33:39;;;;;;;;;;;;;;;;;;5014626;28;19922;-68
2022/12/07 12:36:05;;;;;;;;;;;;;;;;;;5020551;28;19928;-69
2022/12/07 12:38:31;;;;;;;;;;;;;;;;;;5016191;28;20393;-70
2022/12/07 12:40:57;;;;;;;;;;;;;;;;;;5016192;28;19923;-69
2022/12/07 12:43:23;;;;;;;;;;;;;;;;;;5014617;28;19957;-69
2022/12/07 12:45:49;;;;;;;;;;;;;;;;;;5016634;28;19917;-69
2022/12/07 12:48:15;;;;;;;;;;;;;;;;;;5014722;28;19917;-68
2022/12/07 12:50:40;;;;;;;;;;;;;;;;;;5015701;28;19960;-69
2022/12/07 12:53:07;;;;;;;;;;;;;;;;;;5012464;28;19917;-69
2022/12/07 12:55:33;;;;;;;;;;;;;;;;;;5016116;28;19924;-69
2022/12/07 12:57:59;;;;;;;;;;;;;;;;;;5017147;28;19917;-67
2022/12/07 13:00:28;;;;;;;;;;;;;;;;;;5015984;28;19921;-67
2022/12/07 13:02:54;;;;;;;;;;;;;;;;;;5014577;28;19926;-70
2022/12/07 13:05:20;;;;;;;;;;;;;;;;;;5017948;28;19956;-68
2022/12/07 13:07:52;;;;;;;;;;;;;;;;;;5018062;28;19917;-68
2022/12/07 13:10:18;;;;;;;;;;;;;;;;;;5013290;28;19917;-69
2022/12/07 13:12:44;;;;;;;;;;;;;;;;;;5013654;28;20063;-68
2022/12/07 13:15:10;;;;;;;;;;;;;;;;;;5014685;28;19936;-66
2022/12/07 13:17:36;;;;;;;;;;;;;;;;;;5015931;28;19924;-65
2022/12/07 13:20:02;;;;;;;;;;;;;;;;;;5024114;28;20151;-68
2022/12/07 13:22:28;;;;;;;;;;;;;;;;;;5014541;28;19913;-69
2022/12/07 13:24:54;;;;;;;;;;;;;;;;;;5013474;28;19921;-69
2022/12/07 13:27:19;;;;;;;;;;;;;;;;;;5017834;28;20401;-69
2022/12/07 13:29:45;;;;;;;;;;;;;;;;;;5016737;28;20028;-69
2022/12/07 13:32:11;;;;;;;;;;;;;;;;;;5015905;28;20275;-68
2022/12/07 13:34:37;;;;;;;;;;;;;;;;;;5013818;28;20254;-69
2022/12/07 13:37:03;;;;;;;;;;;;;;;;;;5019055;28;19986;-69
2022/12/07 13:39:29;;;;;;;;;;;;;;;;;;5018456;28;19909;-69
2022/12/07 13:41:56;;;;;;;;;;;;;;;;;;5017833;28;19918;-69
2022/12/07 13:44:22;;;;;;;;;;;;;;;;;;5015319;28;19925;-69
2022/12/07 13:46:48;;;;;;;;;;;;;;;;;;5016830;28;19924;-69
2022/12/07 13:49:14;;;;;;;;;;;;;;;;;;5018986;28;19920;-69
2022/12/07 13:51:40;;;;;;;;;;;;;;;;;;5013326;28;20013;-68
2022/12/07 13:54:06;;;;;;;;;;;;;;;;;;5017860;28;20680;-68
2022/12/07 13:56:31;;;;;;;;;;;;;;;;;;5013492;28;20591;-70
2022/12/07 13:58:57;;;;;;;;;;;;;;;;;;5019079;28;19924;-70
2022/12/07 14:01:23;;;;;;;;;;;;;;;;;;5015069;28;19913;-70
2022/12/07 14:03:49;;;;;;;;;;;;;;;;;;5019033;28;19933;-69
2022/12/07 14:06:15;;;;;;;;;;;;;;;;;;5013328;28;19922;-69
2022/12/07 14:08:41;;;;;;;;;;;;;;;;;;5022856;28;20055;-69
2022/12/07 14:11:07;;;;;;;;;;;;;;;;;;5023221;28;19917;-70
2022/12/07 14:13:36;;;;;;;;;;;;;;;;;;5018141;28;19914;-68
2022/12/07 14:16:02;;;;;;;;;;;;;;;;;;5018771;28;19943;-71
2022/12/07 14:18:28;;;;;;;;;;;;;;;;;;5018190;28;19917;-70
2022/12/07 14:20:54;;;;;;;;;;;;;;;;;;5020538;28;20513;-71
2022/12/07 14:23:20;;;;;;;;;;;;;;;;;;5019222;28;19929;-70
2022/12/07 14:25:46;;;;;;;;;;;;;;;;;;5022656;28;19948;-69
2022/12/07 14:28:12;;;;;;;;;;;;;;;;;;5019302;28;19919;-68
2022/12/07 14:30:38;;;;;;;;;;;;;;;;;;5019314;28;19913;-70
2022/12/07 14:33:04;;;;;;;;;;;;;;;;;;5018412;28;19949;-68
2022/12/07 14:35:30;;;;;;;;;;;;;;;;;;5021250;28;19944;-70
2022/12/07 14:37:55;;;;;;;;;;;;;;;;;;5017892;28;19949;-69
2022/12/07 14:40:21;;;;;;;;;;;;;;;;;;5021648;28;19963;-69
2022/12/07 14:42:47;;;;;;;;;;;;;;;;;;5015934;28;19928;-72
2022/12/07 14:45:13;;;;;;;;;;;;;;;;;;5019906;28;20342;-70
2022/12/07 14:47:39;;;;;;;;;;;;;;;;;;5018655;28;19989;-69
2022/12/07 14:50:05;;;;;;;;;;;;;;;;;;5018021;28;19956;-70
2022/12/07 14:52:31;;;;;;;;;;;;;;;;;;5018113;28;19917;-69
2022/12/07 14:54:57;;;;;;;;;;;;;;;;;;5021063;28;19921;-69
2022/12/07 14:57:23;;;;;;;;;;;;;;;;;;5025134;28;19917;-69
2022/12/07 14:59:49;;;;;;;;;;;;;;;;;;5021820;28;19996;-70
2022/12/07 15:02:14;;;;;;;;;;;;;;;;;;5023287;28;19917;-68
2022/12/07 15:04:40;;;;;;;;;;;;;;;;;;5016512;28;19928;-68
2022/12/07 15:07:06;;;;;;;;;;;;;;;;;;5023750;28;20268;-70
2022/12/07 15:09:32;;;;;;;;;;;;;;;;;;5024656;28;19956;-71
2022/12/07 15:11:58;;;;;;;;;;;;;;;;;;5025463;28;19917;-70
2022/12/07 15:14:24;;;;;;;;;;;;;;;;;;5025986;28;20008;-69
2022/12/07 15:16:50;;;;;;;;;;;;;;;;;;5022806;28;20016;-68
2022/12/07 15:19:16;;;;;;;;;;;;;;;;;;5019893;28;20033;-69
2022/12/07 15:21:42;;;;;;;;;;;;;;;;;;5019821;28;19921;-69
2022/12/07 15:24:08;;;;;;;;;;;;;;;;;;5016815;28;19925;-69
2022/12/07 15:26:34;;;;;;;;;;;;;;;;;;5016075;28;19913;-70
2022/12/07 15:29:00;;;;;;;;;;;;;;;;;;5018327;28;20378;-69
2022/12/07 15:31:25;;;;;;;;;;;;;;;;;;5018782;28;19913;-69
2022/12/07 15:33:51;;;;;;;;;;;;;;;;;;5019605;28;19929;-69
2022/12/07 15:36:17;;;;;;;;;;;;;;;;;;5017445;28;20445;-69
2022/12/07 15:38:43;;;;;;;;;;;;;;;;;;5018246;28;19952;-66
2022/12/07 15:41:09;;;;;;;;;;;;;;;;;;5020777;28;19917;-69
2022/12/07 15:46:20;;;;;;;;;;;;;;;;;;5017517;28;20309;-69
2022/12/07 15:48:46;;;;;;;;;;;;;;;;;;5021473;28;19917;-69
2022/12/07 15:51:12;;;;;;;;;;;;;;;;;;5018074;28;19917;-69
2022/12/07 15:53:38;;;;;;;;;;;;;;;;;;5022034;28;20030;-69
2022/12/07 15:56:04;;;;;;;;;;;;;;;;;;5012433;28;19919;-68
2022/12/07 15:58:29;;;;;;;;;;;;;;;;;;5022535;28;20337;-69
2022/12/07 16:00:55;;;;;;;;;;;;;;;;;;5016623;28;19924;-70
2022/12/07 16:03:21;;;;;;;;;;;;;;;;;;5010499;28;20362;-69
2022/12/07 16:05:47;;;;;;;;;;;;;;;;;;5010783;28;20052;-70
2022/12/07 16:08:13;;;;;;;;;;;;;;;;;;5014363;28;20301;-69
2022/12/07 16:10:42;;;;;;;;;;;;;;;;;;5020257;28;19913;-68
2022/12/07 16:13:08;;;;;;;;;;;;;;;;;;5029793;28;19983;-69
2022/12/07 16:15:34;;;;;;;;;;;;;;;;;;5029728;28;20453;-68
2022/12/07 16:18:00;;;;;;;;;;;;;;;;;;5029525;28;19913;-68
2022/12/07 16:20:26;;;;;;;;;;;;;;;;;;5027541;28;20370;-69
2022/12/07 16:22:53;;;;;;;;;;;;;;;;;;5010763;28;19918;-68
2022/12/07 16:25:18;;;;;;;;;;;;;;;;;;5025249;28;19913;-69
2022/12/07 16:27:44;;;;;;;;;;;;;;;;;;5029291;28;19913;-69
2022/12/07 16:30:10;;;;;;;;;;;;;;;;;;5028611;28;19917;-68
2022/12/07 16:32:36;;;;;;;;;;;;;;;;;;5026971;28;19944;-69
2022/12/07 16:35:02;;;;;;;;;;;;;;;;;;5017685;28;19917;-69
2022/12/07 16:37:28;;;;;;;;;;;;;;;;;;5029243;28;20354;-68
2022/12/07 16:39:54;;;;;;;;;;;;;;;;;;5029096;28;19913;-68
2022/12/07 16:42:20;;;;;;;;;;;;;;;;;;5028947;28;19925;-69
2022/12/07 16:44:46;;;;;;;;;;;;;;;;;;5029230;28;19940;-69
2022/12/07 16:47:12;;;;;;;;;;;;;;;;;;5010227;28;19956;-69